sensor_id;sensor_type;location;lat;lon;timestamp;temperature;humidity
26691;DHT22;14307;51.718;8.938;2023-04-06T00:00:38;0.30;99.90
26691;DHT22;14307;51.718;8.938;2023-04-06T00:03:05;0.40;99.90
26691;DHT22;14307;51.718;8.938;2023-04-06T00:05:33;0.30;99.90
26691;DHT22;14307;51.718;8.938;2023-04-06T00:07:59;0.20;99.90
26691;DHT22;14307;51.718;8.938;2023-04-06T00:10:27;0.20;99.90
26691;DHT22;14307;51.718;8.938;2023-04-06T00:12:54;0.20;99.90
26691;DHT22;14307;51.718;8.938;2023-04-06T00:15:23;0.30;99.90
26691;DHT22;14307;51.718;8.938;2023-04-06T00:17:50;0.30;99.90
26691;DHT22;14307;51.718;8.938;2023-04-06T00:20:18;0.30;99.90
26691;DHT22;14307;51.718;8.938;2023-04-06T00:22:45;0.30;99.90
26691;DHT22;14307;51.718;8.938;2023-04-06T00:25:12;0.40;99.90
26691;DHT22;14307;51.718;8.938;2023-04-06T00:27:38;0.50;99.90
26691;DHT22;14307;51.718;8.938;2023-04-06T00:30:06;0.60;99.90
26691;DHT22;14307;51.718;8.938;2023-04-06T00:32:34;0.60;99.90
26691;DHT22;14307;51.718;8.938;2023-04-06T00:35:03;0.70;99.90
26691;DHT22;14307;51.718;8.938;2023-04-06T00:37:30;0.70;99.90
26691;DHT22;14307;51.718;8.938;2023-04-06T00:39:57;0.60;99.90
26691;DHT22;14307;51.718;8.938;2023-04-06T00:42:24;0.60;99.90
26691;DHT22;14307;51.718;8.938;2023-04-06T00:44:55;0.60;99.90
26691;DHT22;14307;51.718;8.938;2023-04-06T00:47:23;0.60;99.90
26691;DHT22;14307;51.718;8.938;2023-04-06T00:49:53;0.60;99.90
26691;DHT22;14307;51.718;8.938;2023-04-06T00:52:21;0.60;99.90
26691;DHT22;14307;51.718;8.938;2023-04-06T00:54:49;0.60;99.90
26691;DHT22;14307;51.718;8.938;2023-04-06T00:57:18;0.70;99.90
26691;DHT22;14307;51.718;8.938;2023-04-06T00:59:52;0.70;99.90
26691;DHT22;14307;51.718;8.938;2023-04-06T01:02:19;0.60;99.90
26691;DHT22;14307;51.718;8.938;2023-04-06T01:04:49;0.60;99.90
26691;DHT22;14307;51.718;8.938;2023-04-06T01:07:24;0.60;99.90
26691;DHT22;14307;51.718;8.938;2023-04-06T01:10:24;0.60;99.90
26691;DHT22;14307;51.718;8.938;2023-04-06T01:12:56;0.70;99.90
26691;DHT22;14307;51.718;8.938;2023-04-06T01:15:49;0.90;99.90
26691;DHT22;14307;51.718;8.938;2023-04-06T01:18:27;0.90;99.90
26691;DHT22;14307;51.718;8.938;2023-04-06T01:21:06;0.90;99.90
26691;DHT22;14307;51.718;8.938;2023-04-06T01:23:35;0.80;99.90
26691;DHT22;14307;51.718;8.938;2023-04-06T01:26:02;0.80;99.90
26691;DHT22;14307;51.718;8.938;2023-04-06T01:28:30;0.70;99.90
26691;DHT22;14307;51.718;8.938;2023-04-06T01:31:16;0.70;99.90
26691;DHT22;14307;51.718;8.938;2023-04-06T01:33:47;0.50;99.90
26691;DHT22;14307;51.718;8.938;2023-04-06T01:36:17;0.30;99.90
26691;DHT22;14307;51.718;8.938;2023-04-06T01:38:47;0.20;99.90
26691;DHT22;14307;51.718;8.938;2023-04-06T01:41:17;0.20;99.90
26691;DHT22;14307;51.718;8.938;2023-04-06T01:43:50;0.00;99.90
26691;DHT22;14307;51.718;8.938;2023-04-06T01:46:24;-0.10;99.90
26691;DHT22;14307;51.718;8.938;2023-04-06T01:48:51;-0.20;99.90
26691;DHT22;14307;51.718;8.938;2023-04-06T01:51:30;-0.20;99.90
26691;DHT22;14307;51.718;8.938;2023-04-06T01:54:00;-0.20;99.90
26691;DHT22;14307;51.718;8.938;2023-04-06T01:56:37;-0.30;99.90
26691;DHT22;14307;51.718;8.938;2023-04-06T01:59:20;-0.30;99.90
26691;DHT22;14307;51.718;8.938;2023-04-06T02:01:47;-0.50;99.90
26691;DHT22;14307;51.718;8.938;2023-04-06T02:04:14;-0.50;99.90
26691;DHT22;14307;51.718;8.938;2023-04-06T02:06:42;-0.70;99.90
26691;DHT22;14307;51.718;8.938;2023-04-06T02:09:11;-0.60;99.90
26691;DHT22;14307;51.718;8.938;2023-04-06T02:11:38;-0.70;99.90
26691;DHT22;14307;51.718;8.938;2023-04-06T02:14:05;-0.70;99.90
26691;DHT22;14307;51.718;8.938;2023-04-06T02:16:37;-0.80;99.90
26691;DHT22;14307;51.718;8.938;2023-04-06T02:19:04;-0.80;99.90
26691;DHT22;14307;51.718;8.938;2023-04-06T02:21:31;-0.90;99.90
26691;DHT22;14307;51.718;8.938;2023-04-06T02:23:58;-0.90;99.90
26691;DHT22;14307;51.718;8.938;2023-04-06T02:26:25;-0.90;99.90
26691;DHT22;14307;51.718;8.938;2023-04-06T02:28:52;-1.00;99.90
26691;DHT22;14307;51.718;8.938;2023-04-06T02:31:18;-1.00;99.90
26691;DHT22;14307;51.718;8.938;2023-04-06T02:33:45;-1.00;99.90
26691;DHT22;14307;51.718;8.938;2023-04-06T02:36:14;-1.00;99.90
26691;DHT22;14307;51.718;8.938;2023-04-06T02:38:41;-1.00;99.90
26691;DHT22;14307;51.718;8.938;2023-04-06T02:41:08;-1.10;99.90
26691;DHT22;14307;51.718;8.938;2023-04-06T02:43:36;-1.00;99.90
26691;DHT22;14307;51.718;8.938;2023-04-06T02:46:09;-1.00;99.90
26691;DHT22;14307;51.718;8.938;2023-04-06T02:48:37;-1.10;99.90
26691;DHT22;14307;51.718;8.938;2023-04-06T02:51:04;-1.10;99.90
26691;DHT22;14307;51.718;8.938;2023-04-06T02:53:32;-1.10;99.90
26691;DHT22;14307;51.718;8.938;2023-04-06T02:55:58;-1.10;99.90
26691;DHT22;14307;51.718;8.938;2023-04-06T02:58:33;-1.10;99.90
26691;DHT22;14307;51.718;8.938;2023-04-06T03:01:00;-1.10;99.90
26691;DHT22;14307;51.718;8.938;2023-04-06T03:03:27;-1.20;99.90
26691;DHT22;14307;51.718;8.938;2023-04-06T03:05:55;-1.10;99.90
26691;DHT22;14307;51.718;8.938;2023-04-06T03:08:27;-1.00;99.90
26691;DHT22;14307;51.718;8.938;2023-04-06T03:10:54;-1.10;99.90
26691;DHT22;14307;51.718;8.938;2023-04-06T03:13:28;-1.10;99.90
26691;DHT22;14307;51.718;8.938;2023-04-06T03:15:57;-1.00;99.90
26691;DHT22;14307;51.718;8.938;2023-04-06T03:18:24;-1.10;99.90
26691;DHT22;14307;51.718;8.938;2023-04-06T03:20:54;-1.10;99.90
26691;DHT22;14307;51.718;8.938;2023-04-06T03:23:26;-1.10;99.90
26691;DHT22;14307;51.718;8.938;2023-04-06T03:25:57;-1.00;99.90
26691;DHT22;14307;51.718;8.938;2023-04-06T03:28:24;-1.00;99.90
26691;DHT22;14307;51.718;8.938;2023-04-06T03:31:02;-1.10;99.90
26691;DHT22;14307;51.718;8.938;2023-04-06T03:33:41;-1.20;99.90
26691;DHT22;14307;51.718;8.938;2023-04-06T03:36:14;-1.10;99.90
26691;DHT22;14307;51.718;8.938;2023-04-06T03:38:42;-1.10;99.90
26691;DHT22;14307;51.718;8.938;2023-04-06T03:41:12;-1.20;99.90
26691;DHT22;14307;51.718;8.938;2023-04-06T03:43:42;-1.20;99.90
26691;DHT22;14307;51.718;8.938;2023-04-06T03:46:10;-1.20;99.90
26691;DHT22;14307;51.718;8.938;2023-04-06T03:48:36;-1.20;99.90
26691;DHT22;14307;51.718;8.938;2023-04-06T03:51:05;-1.20;99.90
26691;DHT22;14307;51.718;8.938;2023-04-06T03:53:32;-1.30;99.90
26691;DHT22;14307;51.718;8.938;2023-04-06T03:55:59;-1.30;99.90
26691;DHT22;14307;51.718;8.938;2023-04-06T03:58:27;-1.40;99.90
26691;DHT22;14307;51.718;8.938;2023-04-06T04:00:54;-1.30;99.90
26691;DHT22;14307;51.718;8.938;2023-04-06T04:03:21;-1.40;99.90
26691;DHT22;14307;51.718;8.938;2023-04-06T04:05:50;-1.40;99.90
26691;DHT22;14307;51.718;8.938;2023-04-06T04:08:17;-1.40;99.90
26691;DHT22;14307;51.718;8.938;2023-04-06T04:10:47;-1.40;99.90
26691;DHT22;14307;51.718;8.938;2023-04-06T04:13:13;-1.40;99.90
26691;DHT22;14307;51.718;8.938;2023-04-06T04:15:44;-1.40;99.90
26691;DHT22;14307;51.718;8.938;2023-04-06T04:18:14;-1.40;99.90
26691;DHT22;14307;51.718;8.938;2023-04-06T04:20:42;-1.50;99.90
26691;DHT22;14307;51.718;8.938;2023-04-06T04:23:10;-1.50;99.90
26691;DHT22;14307;51.718;8.938;2023-04-06T04:25:37;-1.50;99.90
26691;DHT22;14307;51.718;8.938;2023-04-06T04:28:04;-1.50;99.90
26691;DHT22;14307;51.718;8.938;2023-04-06T04:30:31;-1.40;99.90
26691;DHT22;14307;51.718;8.938;2023-04-06T04:32:58;-1.40;99.90
26691;DHT22;14307;51.718;8.938;2023-04-06T04:35:26;-1.50;99.90
26691;DHT22;14307;51.718;8.938;2023-04-06T04:37:53;-1.50;99.90
26691;DHT22;14307;51.718;8.938;2023-04-06T04:40:20;-1.30;99.90
26691;DHT22;14307;51.718;8.938;2023-04-06T04:42:51;-1.30;99.90
26691;DHT22;14307;51.718;8.938;2023-04-06T04:45:25;-1.20;99.90
26691;DHT22;14307;51.718;8.938;2023-04-06T04:47:53;-1.40;99.90
26691;DHT22;14307;51.718;8.938;2023-04-06T04:50:23;-1.40;99.90
26691;DHT22;14307;51.718;8.938;2023-04-06T04:52:54;-1.40;99.90
26691;DHT22;14307;51.718;8.938;2023-04-06T04:55:24;-1.40;99.90
26691;DHT22;14307;51.718;8.938;2023-04-06T04:57:54;-1.30;99.90
26691;DHT22;14307;51.718;8.938;2023-04-06T05:00:26;-1.30;99.90
26691;DHT22;14307;51.718;8.938;2023-04-06T05:02:57;-1.20;99.90
26691;DHT22;14307;51.718;8.938;2023-04-06T05:05:27;-1.40;99.90
26691;DHT22;14307;51.718;8.938;2023-04-06T05:07:54;-1.50;99.90
26691;DHT22;14307;51.718;8.938;2023-04-06T05:10:30;-1.60;99.90
26691;DHT22;14307;51.718;8.938;2023-04-06T05:13:00;-1.50;99.90
26691;DHT22;14307;51.718;8.938;2023-04-06T05:15:27;-1.50;99.90
26691;DHT22;14307;51.718;8.938;2023-04-06T05:18:01;-1.40;99.90
26691;DHT22;14307;51.718;8.938;2023-04-06T05:20:31;-1.40;99.90
26691;DHT22;14307;51.718;8.938;2023-04-06T05:22:59;-1.40;99.90
26691;DHT22;14307;51.718;8.938;2023-04-06T05:25:26;-1.30;99.90
26691;DHT22;14307;51.718;8.938;2023-04-06T05:27:56;-1.40;99.90
26691;DHT22;14307;51.718;8.938;2023-04-06T05:30:28;-1.30;99.90
26691;DHT22;14307;51.718;8.938;2023-04-06T05:32:55;-1.40;99.90
26691;DHT22;14307;51.718;8.938;2023-04-06T05:35:24;-1.30;99.90
26691;DHT22;14307;51.718;8.938;2023-04-06T05:37:55;-1.20;99.90
26691;DHT22;14307;51.718;8.938;2023-04-06T05:40:24;-1.00;99.90
26691;DHT22;14307;51.718;8.938;2023-04-06T05:42:52;-0.90;99.90
26691;DHT22;14307;51.718;8.938;2023-04-06T05:45:20;-0.80;99.90
26691;DHT22;14307;51.718;8.938;2023-04-06T05:47:51;-0.80;99.90
26691;DHT22;14307;51.718;8.938;2023-04-06T05:50:23;-0.70;99.90
26691;DHT22;14307;51.718;8.938;2023-04-06T05:52:50;-0.70;99.90
26691;DHT22;14307;51.718;8.938;2023-04-06T05:55:20;-0.50;99.90
26691;DHT22;14307;51.718;8.938;2023-04-06T05:57:53;-0.60;99.90
26691;DHT22;14307;51.718;8.938;2023-04-06T06:00:21;-0.60;99.90
26691;DHT22;14307;51.718;8.938;2023-04-06T06:02:58;-0.60;99.90
26691;DHT22;14307;51.718;8.938;2023-04-06T06:05:29;-0.50;99.90
26691;DHT22;14307;51.718;8.938;2023-04-06T06:08:01;-0.50;99.90
26691;DHT22;14307;51.718;8.938;2023-04-06T06:10:29;-0.30;99.90
26691;DHT22;14307;51.718;8.938;2023-04-06T06:12:57;-0.20;99.90
26691;DHT22;14307;51.718;8.938;2023-04-06T06:15:25;-0.10;99.90
26691;DHT22;14307;51.718;8.938;2023-04-06T06:17:52;0.10;99.90
26691;DHT22;14307;51.718;8.938;2023-04-06T06:20:19;0.20;99.90
26691;DHT22;14307;51.718;8.938;2023-04-06T06:22:47;0.40;99.90
26691;DHT22;14307;51.718;8.938;2023-04-06T06:25:17;0.50;99.90
26691;DHT22;14307;51.718;8.938;2023-04-06T06:27:46;0.70;99.90
26691;DHT22;14307;51.718;8.938;2023-04-06T06:30:15;0.90;99.90
26691;DHT22;14307;51.718;8.938;2023-04-06T06:32:43;1.10;99.90
26691;DHT22;14307;51.718;8.938;2023-04-06T06:35:10;1.40;99.90
26691;DHT22;14307;51.718;8.938;2023-04-06T06:37:37;1.60;99.90
26691;DHT22;14307;51.718;8.938;2023-04-06T06:40:05;1.80;99.90
26691;DHT22;14307;51.718;8.938;2023-04-06T06:42:34;2.00;99.90
26691;DHT22;14307;51.718;8.938;2023-04-06T06:45:21;2.20;99.90
26691;DHT22;14307;51.718;8.938;2023-04-06T06:47:48;2.30;99.90
26691;DHT22;14307;51.718;8.938;2023-04-06T06:50:15;2.40;99.90
26691;DHT22;14307;51.718;8.938;2023-04-06T06:52:42;2.50;99.90
26691;DHT22;14307;51.718;8.938;2023-04-06T06:55:10;2.70;99.90
26691;DHT22;14307;51.718;8.938;2023-04-06T06:57:37;2.80;99.90
26691;DHT22;14307;51.718;8.938;2023-04-06T07:00:06;2.90;99.90
26691;DHT22;14307;51.718;8.938;2023-04-06T07:02:34;3.00;99.90
26691;DHT22;14307;51.718;8.938;2023-04-06T07:05:03;3.10;99.90
26691;DHT22;14307;51.718;8.938;2023-04-06T07:07:42;3.20;99.90
26691;DHT22;14307;51.718;8.938;2023-04-06T07:10:09;3.40;99.90
26691;DHT22;14307;51.718;8.938;2023-04-06T07:12:37;3.70;99.90
26691;DHT22;14307;51.718;8.938;2023-04-06T07:15:04;4.10;99.90
26691;DHT22;14307;51.718;8.938;2023-04-06T07:17:32;4.30;99.90
26691;DHT22;14307;51.718;8.938;2023-04-06T07:19:59;4.50;99.90
26691;DHT22;14307;51.718;8.938;2023-04-06T07:22:26;4.90;99.90
26691;DHT22;14307;51.718;8.938;2023-04-06T07:24:53;5.20;99.90
26691;DHT22;14307;51.718;8.938;2023-04-06T07:27:20;5.50;99.90
26691;DHT22;14307;51.718;8.938;2023-04-06T07:29:47;5.80;99.90
26691;DHT22;14307;51.718;8.938;2023-04-06T07:32:14;5.80;99.90
26691;DHT22;14307;51.718;8.938;2023-04-06T07:34:41;5.70;99.90
26691;DHT22;14307;51.718;8.938;2023-04-06T07:37:08;5.90;99.90
26691;DHT22;14307;51.718;8.938;2023-04-06T07:39:34;5.80;99.90
26691;DHT22;14307;51.718;8.938;2023-04-06T07:42:01;6.00;99.90
26691;DHT22;14307;51.718;8.938;2023-04-06T07:44:28;6.20;99.90
26691;DHT22;14307;51.718;8.938;2023-04-06T07:46:56;6.50;99.90
26691;DHT22;14307;51.718;8.938;2023-04-06T07:49:23;6.60;99.90
26691;DHT22;14307;51.718;8.938;2023-04-06T07:51:50;6.60;99.90
26691;DHT22;14307;51.718;8.938;2023-04-06T07:54:16;6.70;99.90
26691;DHT22;14307;51.718;8.938;2023-04-06T07:56:43;6.90;99.90
26691;DHT22;14307;51.718;8.938;2023-04-06T07:59:11;6.90;99.90
26691;DHT22;14307;51.718;8.938;2023-04-06T08:01:38;6.80;99.90
26691;DHT22;14307;51.718;8.938;2023-04-06T08:04:04;7.20;99.90
26691;DHT22;14307;51.718;8.938;2023-04-06T08:06:31;7.70;99.90
26691;DHT22;14307;51.718;8.938;2023-04-06T08:08:58;7.70;99.90
26691;DHT22;14307;51.718;8.938;2023-04-06T08:11:25;7.80;99.90
26691;DHT22;14307;51.718;8.938;2023-04-06T08:13:53;7.70;99.90
26691;DHT22;14307;51.718;8.938;2023-04-06T08:16:20;7.80;99.90
26691;DHT22;14307;51.718;8.938;2023-04-06T08:18:47;8.10;99.90
26691;DHT22;14307;51.718;8.938;2023-04-06T08:21:14;8.30;99.90
26691;DHT22;14307;51.718;8.938;2023-04-06T08:23:41;8.40;99.90
26691;DHT22;14307;51.718;8.938;2023-04-06T08:26:08;8.50;99.90
26691;DHT22;14307;51.718;8.938;2023-04-06T08:28:34;8.70;99.90
26691;DHT22;14307;51.718;8.938;2023-04-06T08:31:05;8.80;99.90
26691;DHT22;14307;51.718;8.938;2023-04-06T08:33:33;8.70;99.90
26691;DHT22;14307;51.718;8.938;2023-04-06T08:36:13;9.00;99.90
26691;DHT22;14307;51.718;8.938;2023-04-06T08:38:40;9.00;99.90
26691;DHT22;14307;51.718;8.938;2023-04-06T08:41:11;9.10;99.90
26691;DHT22;14307;51.718;8.938;2023-04-06T08:44:00;9.00;99.90
26691;DHT22;14307;51.718;8.938;2023-04-06T08:46:29;9.00;99.90
26691;DHT22;14307;51.718;8.938;2023-04-06T08:48:59;9.30;99.90
26691;DHT22;14307;51.718;8.938;2023-04-06T08:51:32;9.20;99.90
26691;DHT22;14307;51.718;8.938;2023-04-06T08:54:00;9.50;99.90
26691;DHT22;14307;51.718;8.938;2023-04-06T08:56:27;9.50;99.90
26691;DHT22;14307;51.718;8.938;2023-04-06T08:58:55;9.80;99.90
26691;DHT22;14307;51.718;8.938;2023-04-06T09:01:26;9.80;99.90
26691;DHT22;14307;51.718;8.938;2023-04-06T09:03:59;9.70;99.90
26691;DHT22;14307;51.718;8.938;2023-04-06T09:06:35;9.80;99.90
26691;DHT22;14307;51.718;8.938;2023-04-06T09:09:03;10.30;99.90
26691;DHT22;14307;51.718;8.938;2023-04-06T09:11:45;10.30;99.90
26691;DHT22;14307;51.718;8.938;2023-04-06T09:14:12;10.20;99.90
26691;DHT22;14307;51.718;8.938;2023-04-06T09:16:40;10.20;99.90
26691;DHT22;14307;51.718;8.938;2023-04-06T09:19:09;10.00;99.90
26691;DHT22;14307;51.718;8.938;2023-04-06T09:21:36;10.10;99.90
26691;DHT22;14307;51.718;8.938;2023-04-06T09:24:04;10.20;99.90
26691;DHT22;14307;51.718;8.938;2023-04-06T09:26:31;10.40;99.90
26691;DHT22;14307;51.718;8.938;2023-04-06T09:29:00;10.50;99.90
26691;DHT22;14307;51.718;8.938;2023-04-06T09:31:30;10.20;99.90
26691;DHT22;14307;51.718;8.938;2023-04-06T09:34:00;10.20;99.90
26691;DHT22;14307;51.718;8.938;2023-04-06T09:36:35;10.20;99.90
26691;DHT22;14307;51.718;8.938;2023-04-06T09:39:05;10.20;99.90
26691;DHT22;14307;51.718;8.938;2023-04-06T09:41:35;10.20;99.90
26691;DHT22;14307;51.718;8.938;2023-04-06T09:44:09;10.30;99.90
26691;DHT22;14307;51.718;8.938;2023-04-06T09:47:03;10.40;99.90
26691;DHT22;14307;51.718;8.938;2023-04-06T09:49:33;10.60;99.90
26691;DHT22;14307;51.718;8.938;2023-04-06T09:52:08;10.60;99.90
26691;DHT22;14307;51.718;8.938;2023-04-06T09:54:38;10.80;99.90
26691;DHT22;14307;51.718;8.938;2023-04-06T10:08:27;11.00;99.90
26691;DHT22;14307;51.718;8.938;2023-04-06T10:10:58;11.10;99.90
26691;DHT22;14307;51.718;8.938;2023-04-06T10:13:27;11.40;99.90
26691;DHT22;14307;51.718;8.938;2023-04-06T10:15:54;11.60;99.90
26691;DHT22;14307;51.718;8.938;2023-04-06T10:18:21;11.20;99.90
26691;DHT22;14307;51.718;8.938;2023-04-06T10:21:08;10.90;99.90
26691;DHT22;14307;51.718;8.938;2023-04-06T10:23:41;11.20;99.90
26691;DHT22;14307;51.718;8.938;2023-04-06T10:26:15;11.40;99.90
26691;DHT22;14307;51.718;8.938;2023-04-06T10:28:45;11.70;99.90
26691;DHT22;14307;51.718;8.938;2023-04-06T10:31:12;11.90;99.90
26691;DHT22;14307;51.718;8.938;2023-04-06T10:33:42;11.70;99.90
26691;DHT22;14307;51.718;8.938;2023-04-06T10:36:24;11.60;99.90
26691;DHT22;14307;51.718;8.938;2023-04-06T10:39:00;11.70;99.90
26691;DHT22;14307;51.718;8.938;2023-04-06T10:41:53;11.60;99.90
26691;DHT22;14307;51.718;8.938;2023-04-06T10:44:23;12.00;99.90
26691;DHT22;14307;51.718;8.938;2023-04-06T10:46:58;12.10;99.90
26691;DHT22;14307;51.718;8.938;2023-04-06T10:49:28;11.90;99.90
26691;DHT22;14307;51.718;8.938;2023-04-06T10:51:55;12.10;99.90
26691;DHT22;14307;51.718;8.938;2023-04-06T10:54:24;12.20;99.90
26691;DHT22;14307;51.718;8.938;2023-04-06T10:56:52;12.30;99.90
26691;DHT22;14307;51.718;8.938;2023-04-06T10:59:20;12.40;99.90
26691;DHT22;14307;51.718;8.938;2023-04-06T11:01:48;12.40;99.90
26691;DHT22;14307;51.718;8.938;2023-04-06T11:04:17;12.50;99.90
26691;DHT22;14307;51.718;8.938;2023-04-06T11:06:49;12.30;99.90
26691;DHT22;14307;51.718;8.938;2023-04-06T11:09:27;12.40;99.90
26691;DHT22;14307;51.718;8.938;2023-04-06T11:11:55;12.50;99.90
26691;DHT22;14307;51.718;8.938;2023-04-06T11:14:22;12.40;99.90
26691;DHT22;14307;51.718;8.938;2023-04-06T11:16:50;12.50;99.90
26691;DHT22;14307;51.718;8.938;2023-04-06T11:19:18;12.50;99.90
26691;DHT22;14307;51.718;8.938;2023-04-06T11:21:46;12.60;99.90
26691;DHT22;14307;51.718;8.938;2023-04-06T11:26:49;12.60;99.90
26691;DHT22;14307;51.718;8.938;2023-04-06T11:29:19;12.40;99.90
26691;DHT22;14307;51.718;8.938;2023-04-06T11:34:22;12.60;99.90
26691;DHT22;14307;51.718;8.938;2023-04-06T11:36:55;12.80;99.90
26691;DHT22;14307;51.718;8.938;2023-04-06T11:39:24;12.60;99.90
26691;DHT22;14307;51.718;8.938;2023-04-06T11:42:01;12.60;99.90
26691;DHT22;14307;51.718;8.938;2023-04-06T11:44:37;12.80;99.90
26691;DHT22;14307;51.718;8.938;2023-04-06T11:47:10;12.70;99.90
26691;DHT22;14307;51.718;8.938;2023-04-06T11:49:39;12.70;99.90
26691;DHT22;14307;51.718;8.938;2023-04-06T11:52:20;12.70;99.90
26691;DHT22;14307;51.718;8.938;2023-04-06T11:54:48;12.70;99.90
26691;DHT22;14307;51.718;8.938;2023-04-06T11:57:19;12.70;99.90
26691;DHT22;14307;51.718;8.938;2023-04-06T11:59:46;12.70;99.90
26691;DHT22;14307;51.718;8.938;2023-04-06T12:02:13;12.60;99.90
26691;DHT22;14307;51.718;8.938;2023-04-06T12:04:40;12.30;99.90
26691;DHT22;14307;51.718;8.938;2023-04-06T12:07:07;12.40;99.90
26691;DHT22;14307;51.718;8.938;2023-04-06T12:09:33;12.90;99.90
26691;DHT22;14307;51.718;8.938;2023-04-06T12:12:03;12.90;99.90
26691;DHT22;14307;51.718;8.938;2023-04-06T12:14:30;13.10;99.90
26691;DHT22;14307;51.718;8.938;2023-04-06T12:16:57;13.10;99.90
26691;DHT22;14307;51.718;8.938;2023-04-06T12:19:24;13.20;99.90
26691;DHT22;14307;51.718;8.938;2023-04-06T12:21:57;13.30;99.90
26691;DHT22;14307;51.718;8.938;2023-04-06T12:24:24;13.20;99.90
26691;DHT22;14307;51.718;8.938;2023-04-06T12:26:50;13.20;99.90
26691;DHT22;14307;51.718;8.938;2023-04-06T12:29:28;13.20;99.90
26691;DHT22;14307;51.718;8.938;2023-04-06T12:31:55;13.30;99.90
26691;DHT22;14307;51.718;8.938;2023-04-06T12:34:22;13.40;99.90
26691;DHT22;14307;51.718;8.938;2023-04-06T12:36:49;13.30;99.90
26691;DHT22;14307;51.718;8.938;2023-04-06T12:39:18;13.10;99.90
26691;DHT22;14307;51.718;8.938;2023-04-06T12:41:47;13.00;99.90
26691;DHT22;14307;51.718;8.938;2023-04-06T12:44:14;13.30;99.90
26691;DHT22;14307;51.718;8.938;2023-04-06T12:46:41;13.70;99.90
26691;DHT22;14307;51.718;8.938;2023-04-06T12:49:09;13.80;99.90
26691;DHT22;14307;51.718;8.938;2023-04-06T12:51:36;13.80;99.90
26691;DHT22;14307;51.718;8.938;2023-04-06T12:54:03;13.70;99.90
26691;DHT22;14307;51.718;8.938;2023-04-06T12:56:30;13.50;99.90
26691;DHT22;14307;51.718;8.938;2023-04-06T12:59:01;13.70;99.90
26691;DHT22;14307;51.718;8.938;2023-04-06T13:01:28;13.80;99.90
26691;DHT22;14307;51.718;8.938;2023-04-06T13:03:56;13.80;99.90
26691;DHT22;14307;51.718;8.938;2023-04-06T13:06:23;13.70;99.90
26691;DHT22;14307;51.718;8.938;2023-04-06T13:08:54;13.60;99.90
26691;DHT22;14307;51.718;8.938;2023-04-06T13:11:21;13.40;99.90
26691;DHT22;14307;51.718;8.938;2023-04-06T13:13:52;13.60;99.90
26691;DHT22;14307;51.718;8.938;2023-04-06T13:16:19;13.70;99.90
26691;DHT22;14307;51.718;8.938;2023-04-06T13:18:46;13.70;99.90
26691;DHT22;14307;51.718;8.938;2023-04-06T13:21:16;14.00;99.90
26691;DHT22;14307;51.718;8.938;2023-04-06T13:23:43;13.90;99.80
26691;DHT22;14307;51.718;8.938;2023-04-06T13:26:11;13.70;99.90
26691;DHT22;14307;51.718;8.938;2023-04-06T13:28:39;13.90;99.90
26691;DHT22;14307;51.718;8.938;2023-04-06T13:31:07;14.00;99.90
26691;DHT22;14307;51.718;8.938;2023-04-06T13:33:34;14.10;99.90
26691;DHT22;14307;51.718;8.938;2023-04-06T13:36:01;14.40;99.60
26691;DHT22;14307;51.718;8.938;2023-04-06T13:38:29;14.40;99.30
26691;DHT22;14307;51.718;8.938;2023-04-06T13:40:56;14.20;99.20
26691;DHT22;14307;51.718;8.938;2023-04-06T13:43:24;14.20;99.80
26691;DHT22;14307;51.718;8.938;2023-04-06T13:45:54;14.50;99.70
26691;DHT22;14307;51.718;8.938;2023-04-06T13:48:22;14.40;99.00
26691;DHT22;14307;51.718;8.938;2023-04-06T13:50:49;14.30;99.90
26691;DHT22;14307;51.718;8.938;2023-04-06T13:53:16;14.20;99.30
26691;DHT22;14307;51.718;8.938;2023-04-06T13:55:43;14.00;99.90
26691;DHT22;14307;51.718;8.938;2023-04-06T13:58:10;14.00;99.70
26691;DHT22;14307;51.718;8.938;2023-04-06T14:00:37;14.20;99.90
26691;DHT22;14307;51.718;8.938;2023-04-06T14:03:05;14.40;99.60
26691;DHT22;14307;51.718;8.938;2023-04-06T14:05:33;14.00;99.30
26691;DHT22;14307;51.718;8.938;2023-04-06T14:08:00;14.00;99.20
26691;DHT22;14307;51.718;8.938;2023-04-06T14:10:26;14.00;99.20
26691;DHT22;14307;51.718;8.938;2023-04-06T14:12:54;13.90;99.40
26691;DHT22;14307;51.718;8.938;2023-04-06T14:15:22;13.90;99.90
26691;DHT22;14307;51.718;8.938;2023-04-06T14:17:48;14.00;99.90
26691;DHT22;14307;51.718;8.938;2023-04-06T14:20:15;13.90;99.80
26691;DHT22;14307;51.718;8.938;2023-04-06T14:22:42;13.90;99.30
26691;DHT22;14307;51.718;8.938;2023-04-06T14:25:10;14.00;99.40
26691;DHT22;14307;51.718;8.938;2023-04-06T14:27:37;14.20;99.80
26691;DHT22;14307;51.718;8.938;2023-04-06T14:30:04;14.20;99.70
26691;DHT22;14307;51.718;8.938;2023-04-06T14:32:31;13.90;99.60
26691;DHT22;14307;51.718;8.938;2023-04-06T14:34:58;13.90;99.90
26691;DHT22;14307;51.718;8.938;2023-04-06T14:37:25;13.80;99.70
26691;DHT22;14307;51.718;8.938;2023-04-06T14:39:52;13.60;99.30
26691;DHT22;14307;51.718;8.938;2023-04-06T14:42:19;13.40;99.90
26691;DHT22;14307;51.718;8.938;2023-04-06T14:44:46;13.30;99.90
26691;DHT22;14307;51.718;8.938;2023-04-06T14:47:14;13.30;99.90
26691;DHT22;14307;51.718;8.938;2023-04-06T14:49:47;13.20;99.90
26691;DHT22;14307;51.718;8.938;2023-04-06T14:52:14;13.20;99.90
26691;DHT22;14307;51.718;8.938;2023-04-06T14:54:40;13.00;99.90
26691;DHT22;14307;51.718;8.938;2023-04-06T14:57:07;12.90;99.90
26691;DHT22;14307;51.718;8.938;2023-04-06T14:59:34;12.90;99.90
26691;DHT22;14307;51.718;8.938;2023-04-06T15:02:06;12.90;99.90
26691;DHT22;14307;51.718;8.938;2023-04-06T15:04:36;13.20;99.90
26691;DHT22;14307;51.718;8.938;2023-04-06T15:07:03;13.30;99.90
26691;DHT22;14307;51.718;8.938;2023-04-06T15:09:30;13.50;99.90
26691;DHT22;14307;51.718;8.938;2023-04-06T15:11:57;13.30;99.90
26691;DHT22;14307;51.718;8.938;2023-04-06T15:14:24;13.10;99.90
26691;DHT22;14307;51.718;8.938;2023-04-06T15:16:51;13.00;99.90
26691;DHT22;14307;51.718;8.938;2023-04-06T15:19:18;12.90;99.90
26691;DHT22;14307;51.718;8.938;2023-04-06T15:21:50;12.90;99.90
26691;DHT22;14307;51.718;8.938;2023-04-06T15:24:17;12.60;99.90
26691;DHT22;14307;51.718;8.938;2023-04-06T15:26:44;12.60;99.90
26691;DHT22;14307;51.718;8.938;2023-04-06T15:29:15;12.50;99.90
26691;DHT22;14307;51.718;8.938;2023-04-06T15:31:43;12.60;99.90
26691;DHT22;14307;51.718;8.938;2023-04-06T15:34:10;12.50;99.90
26691;DHT22;14307;51.718;8.938;2023-04-06T15:36:37;12.60;99.90
26691;DHT22;14307;51.718;8.938;2023-04-06T15:39:04;12.60;99.90
26691;DHT22;14307;51.718;8.938;2023-04-06T15:41:34;12.60;99.90
26691;DHT22;14307;51.718;8.938;2023-04-06T15:44:02;12.60;99.90
26691;DHT22;14307;51.718;8.938;2023-04-06T15:46:28;12.70;99.90
26691;DHT22;14307;51.718;8.938;2023-04-06T15:48:56;12.80;99.90
26691;DHT22;14307;51.718;8.938;2023-04-06T15:53:59;12.70;99.90
26691;DHT22;14307;51.718;8.938;2023-04-06T15:56:25;12.70;99.90
26691;DHT22;14307;51.718;8.938;2023-04-06T15:58:52;12.60;99.90
26691;DHT22;14307;51.718;8.938;2023-04-06T16:01:19;12.70;99.90
26691;DHT22;14307;51.718;8.938;2023-04-06T16:03:46;12.60;99.90
26691;DHT22;14307;51.718;8.938;2023-04-06T16:06:13;12.50;99.90